sensor_id;sensor_type;location;lat;lon;timestamp;pressure;altitude;pressure_sealevel;temperature;humidity
64841;BME280;51307;52.162;7.560;2023-01-30T00:00:29;101084.91;;;3.18;67.23
64841;BME280;51307;52.162;7.560;2023-01-30T00:02:54;101101.16;;;2.99;67.78
64841;BME280;51307;52.162;7.560;2023-01-30T00:05:19;101077.94;;;3.17;67.63
64841;BME280;51307;52.162;7.560;2023-01-30T00:07:48;101079.72;;;3.17;67.64
64841;BME280;51307;52.162;7.560;2023-01-30T00:10:14;101078.16;;;3.27;67.67
64841;BME280;51307;52.162;7.560;2023-01-30T00:12:39;101063.75;;;3.31;67.29
64841;BME280;51307;52.162;7.560;2023-01-30T00:15:06;101052.97;;;3.21;68.10
64841;BME280;51307;52.162;7.560;2023-01-30T00:17:31;101053.81;;;3.22;67.93
64841;BME280;51307;52.162;7.560;2023-01-30T00:19:57;101057.06;;;3.38;67.63
64841;BME280;51307;52.162;7.560;2023-01-30T00:22:23;101064.19;;;3.12;68.37
64841;BME280;51307;52.162;7.560;2023-01-30T00:24:48;101055.41;;;3.25;68.17
64841;BME280;51307;52.162;7.560;2023-01-30T00:27:14;101050.13;;;3.37;67.81
64841;BME280;51307;52.162;7.560;2023-01-30T00:29:39;101049.06;;;3.27;68.17
64841;BME280;51307;52.162;7.560;2023-01-30T00:32:05;101046.41;;;3.40;67.70
64841;BME280;51307;52.162;7.560;2023-01-30T00:34:30;101059.00;;;3.36;68.12
64841;BME280;51307;52.162;7.560;2023-01-30T00:36:56;101055.47;;;3.36;68.29
64841;BME280;51307;52.162;7.560;2023-01-30T00:39:21;101057.06;;;3.51;67.91
64841;BME280;51307;52.162;7.560;2023-01-30T00:41:47;101037.81;;;3.49;67.93
64841;BME280;51307;52.162;7.560;2023-01-30T00:44:31;101043.44;;;3.45;68.31
64841;BME280;51307;52.162;7.560;2023-01-30T00:47:15;101014.78;;;3.26;68.77
64841;BME280;51307;52.162;7.560;2023-01-30T00:49:41;101031.69;;;3.49;68.23
64841;BME280;51307;52.162;7.560;2023-01-30T00:52:06;101022.59;;;3.40;68.90
64841;BME280;51307;52.162;7.560;2023-01-30T00:54:32;101016.09;;;3.57;68.49
64841;BME280;51307;52.162;7.560;2023-01-30T00:56:57;101018.03;;;3.55;68.76
64841;BME280;51307;52.162;7.560;2023-01-30T00:59:23;100972.41;;;3.51;68.96
64841;BME280;51307;52.162;7.560;2023-01-30T01:01:48;100971.34;;;3.54;69.40
64841;BME280;51307;52.162;7.560;2023-01-30T01:04:14;100962.53;;;3.66;69.03
64841;BME280;51307;52.162;7.560;2023-01-30T01:06:39;100947.78;;;3.75;68.79
64841;BME280;51307;52.162;7.560;2023-01-30T01:09:05;100949.13;;;3.57;69.42
64841;BME280;51307;52.162;7.560;2023-01-30T01:11:31;100952.06;;;3.52;69.28
64841;BME280;51307;52.162;7.560;2023-01-30T01:14:01;100932.97;;;3.48;69.81
64841;BME280;51307;52.162;7.560;2023-01-30T01:16:28;100935.09;;;3.67;69.39
64841;BME280;51307;52.162;7.560;2023-01-30T01:18:55;100928.13;;;3.66;69.52
64841;BME280;51307;52.162;7.560;2023-01-30T01:21:21;100931.94;;;3.62;69.73
64841;BME280;51307;52.162;7.560;2023-01-30T01:23:51;100938.38;;;3.71;69.34
64841;BME280;51307;52.162;7.560;2023-01-30T01:26:17;100928.38;;;3.50;70.15
64841;BME280;51307;52.162;7.560;2023-01-30T01:28:43;100935.94;;;3.68;69.78
64841;BME280;51307;52.162;7.560;2023-01-30T01:31:10;100925.88;;;3.73;69.60
64841;BME280;51307;52.162;7.560;2023-01-30T01:33:36;100933.81;;;3.73;70.13
64841;BME280;51307;52.162;7.560;2023-01-30T01:36:01;100926.41;;;3.65;70.33
64841;BME280;51307;52.162;7.560;2023-01-30T01:38:27;100927.84;;;3.58;70.69
64841;BME280;51307;52.162;7.560;2023-01-30T01:40:52;100924.41;;;3.69;70.48
64841;BME280;51307;52.162;7.560;2023-01-30T01:44:00;100922.97;;;3.52;71.41
64841;BME280;51307;52.162;7.560;2023-01-30T01:46:31;100905.53;;;3.74;70.45
64841;BME280;51307;52.162;7.560;2023-01-30T01:49:01;100891.41;;;3.86;70.32
64841;BME280;51307;52.162;7.560;2023-01-30T01:51:41;100900.34;;;3.72;70.76
64841;BME280;51307;52.162;7.560;2023-01-30T01:54:26;100874.47;;;3.64;71.49
64841;BME280;51307;52.162;7.560;2023-01-30T01:56:53;100875.47;;;3.75;71.33
64841;BME280;51307;52.162;7.560;2023-01-30T01:59:30;100867.34;;;3.89;70.89
64841;BME280;51307;52.162;7.560;2023-01-30T02:02:00;100860.94;;;3.80;71.21
64841;BME280;51307;52.162;7.560;2023-01-30T02:04:29;100863.97;;;3.87;70.79
64841;BME280;51307;52.162;7.560;2023-01-30T02:07:18;100857.78;;;4.11;70.39
64841;BME280;51307;52.162;7.560;2023-01-30T02:09:45;100854.78;;;3.80;71.27
64841;BME280;51307;52.162;7.560;2023-01-30T02:12:13;100854.00;;;4.02;70.94
64841;BME280;51307;52.162;7.560;2023-01-30T02:14:40;100840.50;;;3.94;71.25
64841;BME280;51307;52.162;7.560;2023-01-30T02:17:07;100844.97;;;3.93;71.29
64841;BME280;51307;52.162;7.560;2023-01-30T02:20:42;100858.34;;;3.92;71.71
64841;BME280;51307;52.162;7.560;2023-01-30T02:39:56;100856.09;;;4.10;71.92
64841;BME280;51307;52.162;7.560;2023-01-30T02:45:25;100818.81;;;4.13;72.14
64841;BME280;51307;52.162;7.560;2023-01-30T02:47:56;100802.41;;;4.19;71.75
64841;BME280;51307;52.162;7.560;2023-01-30T02:50:32;100833.44;;;4.05;72.42
64841;BME280;51307;52.162;7.560;2023-01-30T02:52:59;100810.50;;;4.29;72.02
64841;BME280;51307;52.162;7.560;2023-01-30T02:55:27;100792.69;;;4.19;72.22
64841;BME280;51307;52.162;7.560;2023-01-30T02:57:54;100789.78;;;4.34;71.89
64841;BME280;51307;52.162;7.560;2023-01-30T03:14:25;100780.25;;;4.09;73.05
64841;BME280;51307;52.162;7.560;2023-01-30T03:16:54;100777.63;;;4.31;72.76
64841;BME280;51307;52.162;7.560;2023-01-30T03:19:21;100769.81;;;4.18;72.97
64841;BME280;51307;52.162;7.560;2023-01-30T03:21:47;100755.97;;;4.37;72.78
64841;BME280;51307;52.162;7.560;2023-01-30T03:24:13;100766.78;;;4.23;73.00
64841;BME280;51307;52.162;7.560;2023-01-30T03:26:47;100750.44;;;4.29;72.72
64841;BME280;51307;52.162;7.560;2023-01-30T03:29:14;100734.75;;;4.26;72.82
64841;BME280;51307;52.162;7.560;2023-01-30T03:31:39;100730.66;;;4.45;72.45
64841;BME280;51307;52.162;7.560;2023-01-30T03:34:05;100734.91;;;4.36;72.78
64841;BME280;51307;52.162;7.560;2023-01-30T03:36:30;100723.84;;;4.19;73.36
64841;BME280;51307;52.162;7.560;2023-01-30T03:38:56;100724.16;;;4.26;73.23
64841;BME280;51307;52.162;7.560;2023-01-30T03:41:21;100713.00;;;4.22;73.45
64841;BME280;51307;52.162;7.560;2023-01-30T03:43:47;100711.03;;;4.25;73.45
64841;BME280;51307;52.162;7.560;2023-01-30T03:46:12;100712.84;;;4.35;73.20
64841;BME280;51307;52.162;7.560;2023-01-30T03:48:38;100716.00;;;4.07;74.17
64841;BME280;51307;52.162;7.560;2023-01-30T03:51:03;100720.44;;;4.51;72.68
64841;BME280;51307;52.162;7.560;2023-01-30T03:53:29;100702.28;;;4.24;73.29
64841;BME280;51307;52.162;7.560;2023-01-30T03:55:54;100703.97;;;4.48;72.92
64841;BME280;51307;52.162;7.560;2023-01-30T03:58:20;100701.78;;;4.53;72.79
64841;BME280;51307;52.162;7.560;2023-01-30T04:00:45;100722.25;;;4.51;72.98
64841;BME280;51307;52.162;7.560;2023-01-30T04:03:11;100712.97;;;4.45;73.38
64841;BME280;51307;52.162;7.560;2023-01-30T04:05:36;100715.63;;;4.34;73.68
64841;BME280;51307;52.162;7.560;2023-01-30T04:08:02;100711.75;;;4.38;73.80
64841;BME280;51307;52.162;7.560;2023-01-30T04:10:27;100708.03;;;4.41;73.80
64841;BME280;51307;52.162;7.560;2023-01-30T04:12:53;100704.41;;;4.53;73.49
64841;BME280;51307;52.162;7.560;2023-01-30T04:15:18;100705.34;;;4.75;72.78
64841;BME280;51307;52.162;7.560;2023-01-30T04:17:44;100716.72;;;4.65;72.92
64841;BME280;51307;52.162;7.560;2023-01-30T04:20:10;100714.28;;;4.62;73.39
64841;BME280;51307;52.162;7.560;2023-01-30T04:22:36;100715.59;;;4.68;73.56
64841;BME280;51307;52.162;7.560;2023-01-30T04:25:01;100705.34;;;4.75;73.33
64841;BME280;51307;52.162;7.560;2023-01-30T04:27:27;100709.69;;;4.76;73.76
64841;BME280;51307;52.162;7.560;2023-01-30T04:29:53;100725.97;;;4.60;74.27
64841;BME280;51307;52.162;7.560;2023-01-30T04:32:19;100714.38;;;4.83;73.63
64841;BME280;51307;52.162;7.560;2023-01-30T04:34:44;100708.44;;;4.91;73.54
64841;BME280;51307;52.162;7.560;2023-01-30T04:37:11;100706.66;;;4.80;74.09
64841;BME280;51307;52.162;7.560;2023-01-30T04:39:36;100708.31;;;4.81;74.43
64841;BME280;51307;52.162;7.560;2023-01-30T04:42:02;100715.72;;;4.66;74.66
64841;BME280;51307;52.162;7.560;2023-01-30T04:44:27;100712.13;;;5.00;73.82
64841;BME280;51307;52.162;7.560;2023-01-30T04:46:53;100697.63;;;4.71;74.59
64841;BME280;51307;52.162;7.560;2023-01-30T04:49:19;100699.06;;;4.87;74.18
64841;BME280;51307;52.162;7.560;2023-01-30T04:51:44;100705.78;;;4.91;74.43
64841;BME280;51307;52.162;7.560;2023-01-30T04:54:10;100706.81;;;5.00;74.28
64841;BME280;51307;52.162;7.560;2023-01-30T04:56:35;100694.66;;;4.97;74.40
64841;BME280;51307;52.162;7.560;2023-01-30T04:59:01;100699.63;;;5.23;73.62
64841;BME280;51307;52.162;7.560;2023-01-30T05:01:37;100695.19;;;5.12;73.58
64841;BME280;51307;52.162;7.560;2023-01-30T05:04:04;100698.25;;;5.08;73.85
64841;BME280;51307;52.162;7.560;2023-01-30T05:06:31;100675.34;;;5.06;74.57
64841;BME280;51307;52.162;7.560;2023-01-30T05:08:58;100700.50;;;5.12;74.13
64841;BME280;51307;52.162;7.560;2023-01-30T05:11:25;100709.53;;;5.21;73.51
64841;BME280;51307;52.162;7.560;2023-01-30T05:13:51;100718.72;;;5.17;74.05
64841;BME280;51307;52.162;7.560;2023-01-30T05:16:18;100697.63;;;5.15;74.16
64841;BME280;51307;52.162;7.560;2023-01-30T05:18:44;100701.50;;;5.32;73.58
64841;BME280;51307;52.162;7.560;2023-01-30T05:21:13;100704.03;;;5.34;73.36
64841;BME280;51307;52.162;7.560;2023-01-30T05:23:39;100695.97;;;5.35;73.09
64841;BME280;51307;52.162;7.560;2023-01-30T05:26:05;100703.47;;;4.98;74.30
64841;BME280;51307;52.162;7.560;2023-01-30T05:28:31;100680.28;;;5.11;73.86
64841;BME280;51307;52.162;7.560;2023-01-30T05:31:06;100690.19;;;5.30;73.52
64841;BME280;51307;52.162;7.560;2023-01-30T05:33:32;100696.41;;;5.19;73.82
64841;BME280;51307;52.162;7.560;2023-01-30T05:35:58;100704.34;;;5.19;73.86
64841;BME280;51307;52.162;7.560;2023-01-30T05:38:24;100700.34;;;5.25;73.90
64841;BME280;51307;52.162;7.560;2023-01-30T05:41:01;100703.59;;;5.29;73.87
64841;BME280;51307;52.162;7.560;2023-01-30T05:43:27;100703.75;;;5.58;72.76
64841;BME280;51307;52.162;7.560;2023-01-30T05:45:54;100700.41;;;5.35;73.57
64841;BME280;51307;52.162;7.560;2023-01-30T05:48:21;100696.97;;;5.23;73.46
64841;BME280;51307;52.162;7.560;2023-01-30T05:50:49;100695.53;;;5.19;73.55
64841;BME280;51307;52.162;7.560;2023-01-30T05:53:15;100691.53;;;5.46;72.54
64841;BME280;51307;52.162;7.560;2023-01-30T05:55:41;100695.38;;;5.32;72.62
64841;BME280;51307;52.162;7.560;2023-01-30T05:58:08;100690.50;;;5.58;72.01
64841;BME280;51307;52.162;7.560;2023-01-30T06:00:34;100683.66;;;5.34;72.46
64841;BME280;51307;52.162;7.560;2023-01-30T06:02:59;100685.06;;;5.38;72.35
64841;BME280;51307;52.162;7.560;2023-01-30T06:05:25;100692.84;;;5.51;71.98
64841;BME280;51307;52.162;7.560;2023-01-30T06:07:50;100698.53;;;5.47;71.88
64841;BME280;51307;52.162;7.560;2023-01-30T06:10:16;100702.47;;;5.73;71.12
64841;BME280;51307;52.162;7.560;2023-01-30T06:12:42;100705.34;;;5.39;71.97
64841;BME280;51307;52.162;7.560;2023-01-30T06:15:07;100701.91;;;5.49;71.78
64841;BME280;51307;52.162;7.560;2023-01-30T06:17:33;100702.88;;;5.69;71.11
64841;BME280;51307;52.162;7.560;2023-01-30T06:19:59;100694.84;;;5.59;70.67
64841;BME280;51307;52.162;7.560;2023-01-30T06:22:24;100704.16;;;5.53;70.92
64841;BME280;51307;52.162;7.560;2023-01-30T06:24:50;100705.22;;;5.62;70.37
64841;BME280;51307;52.162;7.560;2023-01-30T06:27:15;100703.00;;;5.46;70.86
64841;BME280;51307;52.162;7.560;2023-01-30T06:29:41;100710.00;;;5.68;70.06
64841;BME280;51307;52.162;7.560;2023-01-30T06:32:06;100714.84;;;5.63;69.69
64841;BME280;51307;52.162;7.560;2023-01-30T06:34:33;100724.81;;;5.50;69.35
64841;BME280;51307;52.162;7.560;2023-01-30T06:36:59;100729.09;;;5.62;68.96
64841;BME280;51307;52.162;7.560;2023-01-30T06:39:24;100727.00;;;5.66;68.16
64841;BME280;51307;52.162;7.560;2023-01-30T06:41:50;100725.91;;;5.47;66.92
64841;BME280;51307;52.162;7.560;2023-01-30T06:44:15;100722.56;;;5.45;66.76
64841;BME280;51307;52.162;7.560;2023-01-30T06:46:41;100746.78;;;5.52;66.20
64841;BME280;51307;52.162;7.560;2023-01-30T06:49:06;100738.75;;;5.42;65.79
64841;BME280;51307;52.162;7.560;2023-01-30T06:51:32;100752.94;;;5.20;65.48
64841;BME280;51307;52.162;7.560;2023-01-30T06:53:57;100737.66;;;5.45;64.78
64841;BME280;51307;52.162;7.560;2023-01-30T06:56:23;100756.84;;;5.58;64.56
64841;BME280;51307;52.162;7.560;2023-01-30T06:58:48;100760.59;;;5.34;65.15
64841;BME280;51307;52.162;7.560;2023-01-30T07:01:14;100767.06;;;5.42;64.85
64841;BME280;51307;52.162;7.560;2023-01-30T07:03:39;100746.72;;;5.42;64.68
64841;BME280;51307;52.162;7.560;2023-01-30T07:06:05;100753.97;;;5.61;64.57
64841;BME280;51307;52.162;7.560;2023-01-30T07:08:30;100767.59;;;5.35;65.34
64841;BME280;51307;52.162;7.560;2023-01-30T07:10:56;100750.44;;;5.39;64.92
64841;BME280;51307;52.162;7.560;2023-01-30T07:13:21;100758.69;;;5.25;65.21
64841;BME280;51307;52.162;7.560;2023-01-30T07:15:47;100764.88;;;5.47;64.20
64841;BME280;51307;52.162;7.560;2023-01-30T07:18:12;100777.47;;;5.33;64.22
64841;BME280;51307;52.162;7.560;2023-01-30T07:20:38;100772.19;;;5.33;64.29
64841;BME280;51307;52.162;7.560;2023-01-30T07:23:04;100767.13;;;5.30;64.71
64841;BME280;51307;52.162;7.560;2023-01-30T07:25:29;100775.84;;;5.21;64.77
64841;BME280;51307;52.162;7.560;2023-01-30T07:28:00;100786.41;;;5.32;64.67
64841;BME280;51307;52.162;7.560;2023-01-30T07:30:28;100789.25;;;5.40;64.41
64841;BME280;51307;52.162;7.560;2023-01-30T07:32:56;100790.66;;;5.56;64.00
64841;BME280;51307;52.162;7.560;2023-01-30T07:35:24;100801.19;;;5.46;64.13
64841;BME280;51307;52.162;7.560;2023-01-30T07:37:50;100804.34;;;5.40;64.23
64841;BME280;51307;52.162;7.560;2023-01-30T07:40:19;100803.44;;;5.62;63.78
64841;BME280;51307;52.162;7.560;2023-01-30T07:42:55;100800.94;;;5.49;63.99
64841;BME280;51307;52.162;7.560;2023-01-30T07:45:22;100804.00;;;5.33;64.91
64841;BME280;51307;52.162;7.560;2023-01-30T07:47:47;100806.97;;;5.51;64.61
64841;BME280;51307;52.162;7.560;2023-01-30T07:50:13;100800.53;;;5.54;64.35
64841;BME280;51307;52.162;7.560;2023-01-30T07:52:38;100802.78;;;5.37;64.56
64841;BME280;51307;52.162;7.560;2023-01-30T07:55:04;100789.53;;;5.37;64.18
64841;BME280;51307;52.162;7.560;2023-01-30T07:57:30;100804.75;;;5.35;63.40
64841;BME280;51307;52.162;7.560;2023-01-30T07:59:55;100793.25;;;5.46;63.22
64841;BME280;51307;52.162;7.560;2023-01-30T08:02:20;100812.44;;;5.38;62.67
64841;BME280;51307;52.162;7.560;2023-01-30T08:04:46;100800.78;;;5.62;62.07
64841;BME280;51307;52.162;7.560;2023-01-30T08:07:11;100830.97;;;5.50;62.45
64841;BME280;51307;52.162;7.560;2023-01-30T08:09:37;100793.03;;;5.38;62.63
64841;BME280;51307;52.162;7.560;2023-01-30T08:12:03;100795.69;;;5.38;62.66
64841;BME280;51307;52.162;7.560;2023-01-30T08:14:28;100794.69;;;5.39;62.54
64841;BME280;51307;52.162;7.560;2023-01-30T08:16:55;100795.44;;;5.41;62.26
64841;BME280;51307;52.162;7.560;2023-01-30T08:19:21;100800.88;;;5.39;62.21
64841;BME280;51307;52.162;7.560;2023-01-30T08:21:46;100800.13;;;5.37;62.05
64841;BME280;51307;52.162;7.560;2023-01-30T08:24:12;100807.25;;;5.37;61.61
64841;BME280;51307;52.162;7.560;2023-01-30T08:26:37;100810.94;;;5.57;60.54
64841;BME280;51307;52.162;7.560;2023-01-30T08:29:03;100798.00;;;5.31;60.71
64841;BME280;51307;52.162;7.560;2023-01-30T08:31:29;100826.31;;;5.31;61.20
64841;BME280;51307;52.162;7.560;2023-01-30T08:33:54;100808.97;;;5.38;60.56
64841;BME280;51307;52.162;7.560;2023-01-30T08:36:20;100810.72;;;5.49;60.62
64841;BME280;51307;52.162;7.560;2023-01-30T08:38:45;100811.50;;;5.28;60.80
64841;BME280;51307;52.162;7.560;2023-01-30T08:41:11;100811.47;;;5.39;61.07
64841;BME280;51307;52.162;7.560;2023-01-30T08:43:36;100806.88;;;5.42;60.92
64841;BME280;51307;52.162;7.560;2023-01-30T08:46:02;100816.91;;;5.38;60.98
64841;BME280;51307;52.162;7.560;2023-01-30T08:48:28;100821.63;;;5.34;61.12
64841;BME280;51307;52.162;7.560;2023-01-30T08:50:54;100864.09;;;5.23;61.57
64841;BME280;51307;52.162;7.560;2023-01-30T08:53:21;100811.16;;;5.54;60.98
64841;BME280;51307;52.162;7.560;2023-01-30T08:55:50;100802.09;;;5.24;61.85
64841;BME280;51307;52.162;7.560;2023-01-30T08:58:17;100805.75;;;5.55;61.18
64841;BME280;51307;52.162;7.560;2023-01-30T09:00:42;100819.44;;;5.39;61.34
64841;BME280;51307;52.162;7.560;2023-01-30T09:03:09;100811.69;;;5.48;61.33
64841;BME280;51307;52.162;7.560;2023-01-30T09:05:36;100812.28;;;5.51;61.39
64841;BME280;51307;52.162;7.560;2023-01-30T09:08:01;100797.19;;;5.52;60.62
64841;BME280;51307;52.162;7.560;2023-01-30T09:10:27;100816.66;;;5.41;61.01
64841;BME280;51307;52.162;7.560;2023-01-30T09:12:53;100822.13;;;5.61;61.00
64841;BME280;51307;52.162;7.560;2023-01-30T09:15:19;100819.84;;;5.56;60.65
64841;BME280;51307;52.162;7.560;2023-01-30T09:17:44;100818.75;;;5.59;60.38
64841;BME280;51307;52.162;7.560;2023-01-30T09:20:11;100828.16;;;5.63;60.28
64841;BME280;51307;52.162;7.560;2023-01-30T09:22:37;100829.53;;;5.46;60.01
64841;BME280;51307;52.162;7.560;2023-01-30T09:25:03;100821.16;;;5.62;59.72
64841;BME280;51307;52.162;7.560;2023-01-30T09:27:29;100820.91;;;5.86;59.55
64841;BME280;51307;52.162;7.560;2023-01-30T09:29:54;100820.19;;;5.63;60.11
64841;BME280;51307;52.162;7.560;2023-01-30T09:32:20;100825.09;;;5.67;59.56
64841;BME280;51307;52.162;7.560;2023-01-30T09:34:46;100836.63;;;5.56;59.34
64841;BME280;51307;52.162;7.560;2023-01-30T09:37:11;100837.63;;;5.77;59.37
64841;BME280;51307;52.162;7.560;2023-01-30T09:39:37;100839.56;;;5.96;58.37
64841;BME280;51307;52.162;7.560;2023-01-30T09:47:11;100846.88;;;5.82;58.44
64841;BME280;51307;52.162;7.560;2023-01-30T09:49:51;100834.66;;;5.91;58.50
64841;BME280;51307;52.162;7.560;2023-01-30T09:55:38;100854.50;;;5.54;58.68
64841;BME280;51307;52.162;7.560;2023-01-30T09:58:18;100855.25;;;5.78;58.01
64841;BME280;51307;52.162;7.560;2023-01-30T10:00:47;100842.09;;;5.76;58.04
64841;BME280;51307;52.162;7.560;2023-01-30T10:10:57;100838.97;;;5.71;57.46
64841;BME280;51307;52.162;7.560;2023-01-30T10:16:37;100840.69;;;5.93;57.43
64841;BME280;51307;52.162;7.560;2023-01-30T10:22:00;100852.38;;;5.69;57.95
64841;BME280;51307;52.162;7.560;2023-01-30T10:24:35;100843.91;;;5.97;57.56
64841;BME280;51307;52.162;7.560;2023-01-30T10:27:12;100848.97;;;6.00;56.79
64841;BME280;51307;52.162;7.560;2023-01-30T10:29:44;100835.94;;;5.76;57.28
64841;BME280;51307;52.162;7.560;2023-01-30T10:32:17;100841.63;;;5.71;57.33
64841;BME280;51307;52.162;7.560;2023-01-30T10:34:49;100831.06;;;5.81;57.09
64841;BME280;51307;52.162;7.560;2023-01-30T10:37:35;100831.22;;;5.79;57.30
64841;BME280;51307;52.162;7.560;2023-01-30T10:43:19;100830.13;;;5.82;57.38
64841;BME280;51307;52.162;7.560;2023-01-30T10:48:45;100813.59;;;5.99;56.78
64841;BME280;51307;52.162;7.560;2023-01-30T10:56:46;100839.19;;;6.00;56.71
64841;BME280;51307;52.162;7.560;2023-01-30T11:04:43;100861.59;;;5.86;56.88
64841;BME280;51307;52.162;7.560;2023-01-30T11:07:12;100857.31;;;5.95;56.68
64841;BME280;51307;52.162;7.560;2023-01-30T11:09:44;100862.69;;;6.05;56.22
64841;BME280;51307;52.162;7.560;2023-01-30T11:12:09;100871.06;;;6.00;56.51
64841;BME280;51307;52.162;7.560;2023-01-30T11:14:54;100843.31;;;6.35;55.68
64841;BME280;51307;52.162;7.560;2023-01-30T11:17:28;100844.50;;;6.21;55.67
64841;BME280;51307;52.162;7.560;2023-01-30T11:19:57;100855.25;;;6.20;55.96
64841;BME280;51307;52.162;7.560;2023-01-30T11:22:27;100850.66;;;6.43;54.81
64841;BME280;51307;52.162;7.560;2023-01-30T11:25:08;100846.03;;;6.24;55.25
64841;BME280;51307;52.162;7.560;2023-01-30T11:27:35;100862.88;;;6.34;54.35
64841;BME280;51307;52.162;7.560;2023-01-30T11:30:18;100826.84;;;6.11;55.06
64841;BME280;51307;52.162;7.560;2023-01-30T11:32:47;100844.50;;;6.00;54.24
64841;BME280;51307;52.162;7.560;2023-01-30T11:37:43;100835.50;;;6.34;54.56
64841;BME280;51307;52.162;7.560;2023-01-30T11:42:50;100836.78;;;6.18;54.34
64841;BME280;51307;52.162;7.560;2023-01-30T11:45:22;100844.13;;;6.57;53.38
64841;BME280;51307;52.162;7.560;2023-01-30T11:47:57;100863.44;;;6.28;53.12
64841;BME280;51307;52.162;7.560;2023-01-30T11:50:38;100848.78;;;6.34;53.21
64841;BME280;51307;52.162;7.560;2023-01-30T11:55:41;100864.31;;;6.38;54.43
64841;BME280;51307;52.162;7.560;2023-01-30T11:58:08;100849.78;;;6.43;54.74
64841;BME280;51307;52.162;7.560;2023-01-30T12:00:39;100848.03;;;6.53;54.79
64841;BME280;51307;52.162;7.560;2023-01-30T12:03:11;100850.16;;;6.59;55.64
64841;BME280;51307;52.162;7.560;2023-01-30T12:05:39;100859.41;;;6.13;56.45
64841;BME280;51307;52.162;7.560;2023-01-30T12:10:53;100861.19;;;6.33;55.88
64841;BME280;51307;52.162;7.560;2023-01-30T12:13:37;100847.91;;;6.33;55.04
64841;BME280;51307;52.162;7.560;2023-01-30T12:16:17;100871.44;;;6.38;54.83
64841;BME280;51307;52.162;7.560;2023-01-30T12:21:58;100869.63;;;6.38;54.17
64841;BME280;51307;52.162;7.560;2023-01-30T12:24:42;100861.59;;;6.50;54.04
64841;BME280;51307;52.162;7.560;2023-01-30T12:27:27;100858.31;;;6.36;54.28
64841;BME280;51307;52.162;7.560;2023-01-30T12:32:47;100875.84;;;6.49;53.24
64841;BME280;51307;52.162;7.560;2023-01-30T12:35:15;100858.03;;;6.39;53.67
64841;BME280;51307;52.162;7.560;2023-01-30T12:37:47;100882.72;;;6.30;55.01
64841;BME280;51307;52.162;7.560;2023-01-30T12:43:21;100875.47;;;6.32;57.24
64841;BME280;51307;52.162;7.560;2023-01-30T12:54:01;100890.69;;;6.09;59.26
64841;BME280;51307;52.162;7.560;2023-01-30T12:59:52;100897.91;;;5.97;60.84
64841;BME280;51307;52.162;7.560;2023-01-30T13:02:41;100925.13;;;6.32;60.65
64841;BME280;51307;52.162;7.560;2023-01-30T13:08:32;100919.34;;;5.73;64.28
64841;BME280;51307;52.162;7.560;2023-01-30T13:11:16;100935.56;;;5.59;64.12
64841;BME280;51307;52.162;7.560;2023-01-30T13:16:50;100973.84;;;5.88;63.33
64841;BME280;51307;52.162;7.560;2023-01-30T13:19:31;101034.91;;;4.75;64.08
64841;BME280;51307;52.162;7.560;2023-01-30T13:22:26;101053.34;;;4.28;65.49
64841;BME280;51307;52.162;7.560;2023-01-30T13:27:39;100951.13;;;4.26;64.27
64841;BME280;51307;52.162;7.560;2023-01-30T13:30:15;100966.72;;;4.42;62.98
64841;BME280;51307;52.162;7.560;2023-01-30T13:32:52;100971.50;;;4.36;63.46
64841;BME280;51307;52.162;7.560;2023-01-30T13:35:43;100962.69;;;4.00;63.82
64841;BME280;51307;52.162;7.560;2023-01-30T13:38:16;100963.41;;;4.27;63.48
64841;BME280;51307;52.162;7.560;2023-01-30T13:40:44;100971.50;;;4.36;63.62
64841;BME280;51307;52.162;7.560;2023-01-30T13:43:19;100971.03;;;4.67;62.69
64841;BME280;51307;52.162;7.560;2023-01-30T13:45:49;100979.09;;;4.88;63.63
64841;BME280;51307;52.162;7.560;2023-01-30T14:07:27;101006.50;;;5.22;64.03
64841;BME280;51307;52.162;7.560;2023-01-30T14:12:37;101019.53;;;5.48;62.61
64841;BME280;51307;52.162;7.560;2023-01-30T14:20:26;101043.06;;;5.53;61.94
64841;BME280;51307;52.162;7.560;2023-01-30T14:22:58;101047.53;;;5.64;61.74
64841;BME280;51307;52.162;7.560;2023-01-30T14:30:58;101078.50;;;5.86;60.39
64841;BME280;51307;52.162;7.560;2023-01-30T14:38:27;101077.06;;;5.59;61.38
64841;BME280;51307;52.162;7.560;2023-01-30T14:45:58;101100.00;;;5.49;61.77
64841;BME280;51307;52.162;7.560;2023-01-30T14:57:14;101121.47;;;5.91;60.63
64841;BME280;51307;52.162;7.560;2023-01-30T15:04:42;101134.03;;;5.66;61.18
64841;BME280;51307;52.162;7.560;2023-01-30T15:07:21;101141.84;;;6.24;59.28
64841;BME280;51307;52.162;7.560;2023-01-30T15:09:56;101129.63;;;6.33;59.01
64841;BME280;51307;52.162;7.560;2023-01-30T15:31:54;101161.78;;;6.19;59.03
64841;BME280;51307;52.162;7.560;2023-01-30T15:34:21;101173.03;;;6.11;59.13
64841;BME280;51307;52.162;7.560;2023-01-30T15:36:46;101205.97;;;6.20;59.01
64841;BME280;51307;52.162;7.560;2023-01-30T15:41:41;101197.78;;;6.12;58.86
64841;BME280;51307;52.162;7.560;2023-01-30T15:47:09;101202.25;;;5.88;59.05
64841;BME280;51307;52.162;7.560;2023-01-30T15:52:20;101214.44;;;6.14;59.15
64841;BME280;51307;52.162;7.560;2023-01-30T15:54:52;101212.63;;;6.37;58.10
64841;BME280;51307;52.162;7.560;2023-01-30T15:57:27;101215.63;;;5.87;59.71
64841;BME280;51307;52.162;7.560;2023-01-30T15:59:55;101227.59;;;6.27;58.35
64841;BME280;51307;52.162;7.560;2023-01-30T16:02:29;101239.06;;;6.04;59.12
64841;BME280;51307;52.162;7.560;2023-01-30T16:05:23;101232.06;;;6.26;58.75
64841;BME280;51307;52.162;7.560;2023-01-30T16:07:50;101255.00;;;5.93;59.45
64841;BME280;51307;52.162;7.560;2023-01-30T16:10:19;101252.72;;;6.11;58.67
64841;BME280;51307;52.162;7.560;2023-01-30T16:12:47;101254.03;;;5.94;59.40
64841;BME280;51307;52.162;7.560;2023-01-30T16:15:25;101264.56;;;6.07;58.46
64841;BME280;51307;52.162;7.560;2023-01-30T16:18:04;101271.81;;;6.16;57.51
64841;BME280;51307;52.162;7.560;2023-01-30T16:20:45;101278.47;;;6.22;58.11
64841;BME280;51307;52.162;7.560;2023-01-30T16:23:52;101293.41;;;6.12;58.27
64841;BME280;51307;52.162;7.560;2023-01-30T16:26:18;101289.31;;;6.30;58.02